Time;durP1;ratioP1;P1;durP2;ratioP2;P2;SDS_P1;SDS_P2;PMS_P1;PMS_P2;Temp;Humidity;BMP_temperature;BMP_pressure;BME280_temperature;BME280_humidity;BME280_pressure;Samples;Min_cycle;Max_cycle;Signal;HPM_P1;HPM_P2
2023/08/25 00:01:22;;;;;;;8.00;7.15;;;;;;;22.82;96.35;98084.16;5032383;28;20524;-58
2023/08/25 00:03:48;;;;;;;9.07;8.27;;;;;;;22.84;95.75;98085.59;5032458;28;20235;-58
2023/08/25 00:06:14;;;;;;;9.35;8.20;;;;;;;22.73;96.25;98069.47;5032359;28;20174;-58
2023/08/25 00:08:39;;;;;;;11.20;8.73;;;;;;;22.63;96.62;98071.59;5032293;28;20221;-58
2023/08/25 00:11:05;;;;;;;9.18;8.27;;;;;;;22.68;98.02;98087.69;5032390;28;20185;-58
2023/08/25 00:13:32;;;;;;;8.82;7.93;;;;;;;22.64;98.29;98084.63;5032391;28;20174;-58
2023/08/25 00:15:58;;;;;;;9.38;8.48;;;;;;;22.63;98.52;98084.78;5032232;28;20585;-59
2023/08/25 00:18:23;;;;;;;8.77;7.88;;;;;;;22.78;98.37;98094.28;5032254;28;20177;-59
2023/08/25 00:20:49;;;;;;;9.18;7.47;;;;;;;22.78;98.15;98101.38;5032109;28;20623;-58
2023/08/25 00:23:15;;;;;;;8.93;8.02;;;;;;;22.45;98.55;98058.88;5032194;28;20178;-59
2023/08/25 00:25:45;;;;;;;8.70;7.78;;;;;;;22.49;99.23;98075.94;5031684;28;20174;-59
2023/08/25 00:28:11;;;;;;;9.25;8.07;;;;;;;22.43;99.32;98073.22;5032305;28;20235;-59
2023/08/25 00:30:36;;;;;;;11.13;8.10;;;;;;;22.52;99.89;98103.75;5031939;28;20178;-58
2023/08/25 00:33:01;;;;;;;9.18;8.35;;;;;;;22.54;99.97;98109.63;5032171;28;20178;-59
2023/08/25 00:35:27;;;;;;;8.80;7.90;;;;;;;22.45;100.00;98101.06;5031895;28;20205;-58
2023/08/25 00:37:52;;;;;;;8.48;7.72;;;;;;;22.31;100.00;98090.53;5032157;28;20188;-58
2023/08/25 00:40:18;;;;;;;8.50;7.60;;;;;;;22.25;100.00;98083.34;5031740;28;20696;-58
2023/08/25 00:42:43;;;;;;;9.77;8.35;;;;;;;22.45;100.00;98116.06;5031781;28;20201;-58
2023/08/25 00:45:09;;;;;;;10.05;8.02;;;;;;;22.29;97.98;98081.97;5031587;28;20256;-58
2023/08/25 00:47:35;;;;;;;11.20;8.50;;;;;;;22.44;97.13;98090.69;5031913;28;20207;-58
2023/08/25 00:50:01;;;;;;;10.05;8.70;;;;;;;22.50;96.28;98088.09;5031619;28;20264;-58
2023/08/25 00:52:27;;;;;;;9.35;8.35;;;;;;;22.60;95.19;98093.09;5031463;28;20188;-58
2023/08/25 00:54:55;;;;;;;9.55;8.30;;;;;;;22.78;95.02;98098.75;5031570;28;20170;-58
2023/08/25 00:57:21;;;;;;;9.05;8.25;;;;;;;22.86;95.20;98115.28;5031491;28;20232;-58
2023/08/25 00:59:47;;;;;;;10.30;8.35;;;;;;;22.93;94.62;98105.59;5031453;28;20664;-58
2023/08/25 01:02:13;;;;;;;11.52;8.80;;;;;;;22.83;93.65;98089.25;5031340;28;20215;-58
2023/08/25 01:04:39;;;;;;;9.32;8.43;;;;;;;22.75;93.83;98078.00;5031359;28;20201;-58
2023/08/25 01:07:05;;;;;;;9.00;8.05;;;;;;;22.77;93.85;98079.44;5031347;28;20265;-58
2023/08/25 01:09:32;;;;;;;9.52;8.63;;;;;;;22.84;94.22;98090.06;5030912;28;20820;-58
2023/08/25 01:12:19;;;;;;;10.63;8.35;;;;;;;22.71;94.64;98074.94;5031451;28;20181;-58
2023/08/25 01:15:04;;;;;;;8.85;8.05;;;;;;;22.93;94.51;98120.59;5031240;28;20192;-58
2023/08/25 01:17:44;;;;;;;9.43;8.57;;;;;;;22.91;95.07;98122.59;5031111;28;20192;-58
2023/08/25 01:20:13;;;;;;;9.18;8.38;;;;;;;22.74;94.19;98085.13;5030724;28;20553;-58
2023/08/25 01:23:06;;;;;;;15.60;8.85;;;;;;;22.91;95.30;98127.88;5031061;28;20174;-58
2023/08/25 01:25:32;;;;;;;10.02;8.88;;;;;;;22.88;95.37;98122.97;5031379;28;20236;-58
2023/08/25 01:28:00;;;;;;;11.30;8.45;;;;;;;22.76;95.27;98108.66;5030954;28;20644;-58
2023/08/25 01:30:27;;;;;;;9.68;8.80;;;;;;;22.94;95.13;98122.22;5031021;28;20178;-58
2023/08/25 01:32:53;;;;;;;9.43;8.52;;;;;;;22.89;95.74;98129.91;5030986;28;20659;-58
2023/08/25 01:35:29;;;;;;;8.77;7.90;;;;;;;22.89;95.80;98129.91;5030698;28;20223;-58
2023/08/25 01:38:04;;;;;;;9.13;8.23;;;;;;;22.73;96.12;98107.22;5030599;28;20663;-58
2023/08/25 01:40:47;;;;;;;8.75;7.95;;;;;;;22.73;96.84;98122.22;5030902;28;20340;-58
2023/08/25 01:43:17;;;;;;;9.55;8.65;;;;;;;22.77;96.80;98137.50;5030884;28;20178;-58
2023/08/25 01:45:43;;;;;;;9.27;8.27;;;;;;;22.83;96.71;98135.91;5030626;28;20173;-58
2023/08/25 01:48:13;;;;;;;11.13;8.55;;;;;;;22.77;96.84;98110.28;5030814;28;20173;-58
2023/08/25 01:50:39;;;;;;;11.70;8.25;;;;;;;22.81;96.26;98106.28;5030742;28;20173;-58
2023/08/25 01:53:05;;;;;;;12.05;8.68;;;;;;;22.81;96.04;98106.28;5030725;28;20268;-58
2023/08/25 01:55:30;;;;;;;9.88;8.05;;;;;;;22.88;96.84;98144.09;5030859;28;20174;-58
2023/08/25 01:57:56;;;;;;;10.68;8.02;;;;;;;22.65;96.67;98117.91;5031079;28;20182;-58
2023/08/25 02:00:21;;;;;;;8.88;8.10;;;;;;;22.69;97.11;98107.78;5030652;28;20759;-58
2023/08/25 02:02:46;;;;;;;9.50;8.60;;;;;;;22.80;96.33;98117.84;5030654;28;20178;-58
2023/08/25 02:05:12;;;;;;;9.50;8.60;;;;;;;22.64;96.89;98086.41;5030779;28;20251;-58
2023/08/25 02:07:37;;;;;;;9.40;8.52;;;;;;;22.82;96.70;98124.56;5030678;28;20178;-58
2023/08/25 02:10:03;;;;;;;10.02;8.23;;;;;;;22.64;96.35;98081.16;5030723;28;20205;-59
2023/08/25 02:12:29;;;;;;;9.23;8.30;;;;;;;22.88;95.44;98122.97;5030690;28;20261;-58
2023/08/25 02:14:54;;;;;;;9.77;8.85;;;;;;;22.74;95.96;98090.41;5030644;28;20192;-58
2023/08/25 02:17:20;;;;;;;9.85;8.82;;;;;;;22.72;95.67;98086.31;5030519;28;20182;-58
2023/08/25 02:19:45;;;;;;;10.23;8.25;;;;;;;22.91;95.20;98112.06;5030569;28;20621;-58
2023/08/25 02:22:10;;;;;;;9.65;8.60;;;;;;;22.87;95.18;98103.72;5030374;28;20722;-58
2023/08/25 02:24:36;;;;;;;9.05;8.15;;;;;;;22.75;95.15;98101.75;5030557;28;20174;-58
2023/08/25 02:27:01;;;;;;;12.20;8.55;;;;;;;22.87;94.22;98108.97;5030436;28;20659;-58
2023/08/25 02:29:26;;;;;;;11.13;8.98;;;;;;;22.85;93.60;98102.25;5030182;28;20202;-58
2023/08/25 02:31:52;;;;;;;10.18;9.10;;;;;;;22.94;93.27;98123.03;5030466;28;20188;-58
2023/08/25 02:34:18;;;;;;;9.90;8.05;;;;;;;23.04;93.78;98143.84;5030421;28;20585;-58
2023/08/25 02:36:43;;;;;;;10.20;8.48;;;;;;;22.97;94.24;98137.69;5030004;28;20567;-58
2023/08/25 02:39:09;;;;;;;9.68;8.68;;;;;;;22.84;94.20;98124.38;5030349;28;20174;-58
2023/08/25 02:41:34;;;;;;;10.68;8.35;;;;;;;22.69;94.81;98108.59;5029932;28;20296;-58
2023/08/25 02:44:00;;;;;;;8.98;8.07;;;;;;;22.57;96.07;98118.03;5030293;28;20309;-58
2023/08/25 02:46:25;;;;;;;9.38;8.52;;;;;;;22.61;96.86;98139.56;5030047;28;20178;-58
2023/08/25 02:48:50;;;;;;;10.20;9.23;;;;;;;22.49;97.37;98128.66;5032388;28;20640;-58
2023/08/25 02:51:16;;;;;;;9.73;8.82;;;;;;;22.59;97.59;98145.03;5033723;28;20272;-58
2023/08/25 02:53:41;;;;;;;8.95;8.10;;;;;;;22.55;97.54;98142.94;5033755;28;20522;-58
2023/08/25 02:56:06;;;;;;;11.50;8.10;;;;;;;22.55;98.00;98135.84;5033729;28;20178;-58
2023/08/25 02:58:32;;;;;;;10.15;8.60;;;;;;;22.57;96.94;98120.66;5033656;28;20264;-58
2023/08/25 03:00:57;;;;;;;9.90;8.25;;;;;;;22.69;96.79;98145.53;5033489;28;20610;-56
2023/08/25 03:03:23;;;;;;;9.93;8.85;;;;;;;22.67;96.87;98138.81;5033640;28;20284;-58
2023/08/25 03:05:49;;;;;;;10.43;8.90;;;;;;;22.58;96.66;98121.47;5033661;28;20704;-58
2023/08/25 03:08:15;;;;;;;11.18;8.00;;;;;;;22.53;96.73;98108.00;5033031;28;20235;-58
2023/08/25 03:10:43;;;;;;;9.43;8.50;;;;;;;22.40;96.85;98107.84;5033212;28;20178;-58
2023/08/25 03:13:09;;;;;;;9.90;9.00;;;;;;;22.53;97.85;98129.94;5033369;28;20261;-58
2023/08/25 03:15:35;;;;;;;9.25;8.27;;;;;;;22.53;97.59;98134.38;5033415;28;20197;-58
2023/08/25 03:18:00;;;;;;;12.32;9.30;;;;;;;22.55;97.50;98142.94;5033322;28;20267;-58
2023/08/25 03:20:26;;;;;;;10.02;8.93;;;;;;;22.39;96.35;98106.22;5033201;28;20247;-58
2023/08/25 03:22:52;;;;;;;10.38;9.23;;;;;;;22.47;95.55;98114.03;5032959;28;20192;-58
2023/08/25 03:25:18;;;;;;;10.30;9.27;;;;;;;22.67;95.82;98162.56;5033155;28;20182;-58
2023/08/25 03:27:43;;;;;;;10.70;9.60;;;;;;;22.71;95.52;98158.53;5033194;28;20181;-58
2023/08/25 03:30:09;;;;;;;11.27;9.35;;;;;;;22.70;95.04;98157.72;5032852;28;20217;-58
2023/08/25 03:32:34;;;;;;;11.00;9.18;;;;;;;22.81;95.07;98170.44;5033068;28;20667;-58
2023/08/25 03:35:01;;;;;;;11.50;8.90;;;;;;;22.70;94.10;98133.97;5032633;28;20170;-58
2023/08/25 03:37:26;;;;;;;10.15;9.13;;;;;;;22.84;93.91;98158.69;5050466;28;20538;-58
2023/08/25 03:39:52;;;;;;;9.05;7.93;;;;;;;22.62;94.66;98141.19;5030248;28;20229;-58
2023/08/25 03:42:17;;;;;;;9.95;8.93;;;;;;;22.58;96.10;98161.84;5030320;28;20625;-58
2023/08/25 03:44:44;;;;;;;10.50;9.40;;;;;;;22.53;95.49;98142.28;5030427;28;20264;-58
2023/08/25 03:47:10;;;;;;;14.60;8.30;;;;;;;22.64;94.79;98163.75;5030338;28;20182;-58
2023/08/25 03:49:35;;;;;;;10.45;9.45;;;;;;;22.72;94.80;98183.91;5030307;28;20691;-58
2023/08/25 03:52:01;;;;;;;9.90;8.90;;;;;;;22.50;94.52;98140.84;5030200;28;20181;-58
2023/08/25 03:54:31;;;;;;;9.35;8.18;;;;;;;22.45;95.80;98153.78;5030163;28;20193;-58
2023/08/25 03:56:56;;;;;;;11.48;8.82;;;;;;;22.50;96.20;98156.66;5030246;28;20178;-58
2023/08/25 03:59:21;;;;;;;9.25;8.48;;;;;;;22.39;96.28;98146.59;5029618;28;20614;-58
2023/08/25 04:01:47;;;;;;;9.05;8.23;;;;;;;22.56;96.68;98171.75;5029933;28;20217;-58
2023/08/25 04:04:12;;;;;;;9.82;8.88;;;;;;;22.35;96.65;98145.31;5030138;28;20174;-58
2023/08/25 04:06:38;;;;;;;10.43;8.27;;;;;;;22.39;96.44;98166.84;5030103;28;20265;-58
2023/08/25 04:09:03;;;;;;;11.13;8.85;;;;;;;22.43;97.13;98166.31;5029779;28;20205;-58
2023/08/25 04:11:29;;;;;;;10.20;9.00;;;;;;;22.49;97.67;98170.88;5045186;28;20181;-57
2023/08/25 04:13:54;;;;;;;9.77;8.68;;;;;;;22.50;97.09;98148.75;5047804;28;20268;-58
2023/08/25 04:16:19;;;;;;;9.93;9.02;;;;;;;22.64;96.51;98168.19;5032260;28;20178;-59
2023/08/25 04:18:45;;;;;;;9.75;8.82;;;;;;;22.58;96.27;98158.38;5032235;28;20210;-56
2023/08/25 04:21:10;;;;;;;10.45;8.98;;;;;;;22.72;95.97;98176.81;5032054;28;20255;-57
2023/08/25 04:23:36;;;;;;;12.57;9.55;;;;;;;22.51;96.21;98149.59;5032134;28;20178;-57
2023/08/25 04:26:01;;;;;;;9.73;8.68;;;;;;;22.51;96.28;98134.59;5031972;28;20189;-58
2023/08/25 04:28:27;;;;;;;11.15;9.32;;;;;;;22.60;95.99;98127.38;5031759;28;20170;-58
2023/08/25 04:30:56;;;;;;;10.77;9.63;;;;;;;22.72;95.57;98144.34;5031958;28;20269;-57
2023/08/25 04:33:21;;;;;;;11.80;10.00;;;;;;;22.70;95.37;98135.78;5031888;28;20205;-57
2023/08/25 04:35:47;;;;;;;12.75;10.05;;;;;;;22.77;95.77;98141.94;5031851;28;20581;-58
2023/08/25 04:38:13;;;;;;;9.80;8.73;;;;;;;22.78;95.04;98138.31;5031770;28;20549;-58
2023/08/25 04:40:38;;;;;;;10.35;9.18;;;;;;;22.96;94.00;98157.97;5031759;28;20284;-57
2023/08/25 04:43:05;;;;;;;10.93;8.63;;;;;;;22.98;94.20;98150.69;5031698;28;20541;-58
2023/08/25 04:45:31;;;;;;;10.25;8.82;;;;;;;22.96;93.38;98147.41;5031416;28;20178;-58
2023/08/25 04:47:56;;;;;;;10.85;9.75;;;;;;;23.07;92.54;98159.31;5031644;28;20186;-58
2023/08/25 04:50:22;;;;;;;12.55;8.68;;;;;;;23.10;92.53;98165.03;5031237;28;20676;-58
2023/08/25 04:52:47;;;;;;;10.40;8.35;;;;;;;23.06;92.38;98150.56;5031510;28;20170;-59
2023/08/25 04:55:13;;;;;;;10.05;8.98;;;;;;;23.00;91.12;98142.56;5031805;28;20193;-59
2023/08/25 04:57:39;;;;;;;9.77;8.77;;;;;;;23.18;90.78;98166.72;5031553;28;20542;-59
2023/08/25 05:00:05;;;;;;;9.10;8.20;;;;;;;23.16;90.19;98150.25;5031396;28;20174;-58
2023/08/25 05:02:31;;;;;;;10.02;8.93;;;;;;;23.48;89.72;98189.34;5031110;28;20189;-59
2023/08/25 05:04:58;;;;;;;9.93;8.20;;;;;;;23.48;89.27;98184.06;5031323;28;20675;-59
2023/08/25 05:07:23;;;;;;;10.10;8.95;;;;;;;23.46;89.56;98170.22;5031255;28;20170;-57
2023/08/25 05:09:49;;;;;;;9.73;8.93;;;;;;;23.45;89.32;98173.88;5031348;28;20695;-58
2023/08/25 05:12:14;;;;;;;11.65;8.65;;;;;;;23.59;89.61;98183.56;5030427;28;20181;-59
2023/08/25 05:14:40;;;;;;;10.75;8.68;;;;;;;23.67;88.23;98178.13;5030953;28;20256;-59
2023/08/25 05:17:05;;;;;;;9.02;8.13;;;;;;;23.70;87.42;98167.97;5031182;28;20177;-58
2023/08/25 05:19:31;;;;;;;9.05;8.25;;;;;;;23.83;86.69;98174.16;5031203;28;20257;-57
2023/08/25 05:21:56;;;;;;;9.32;8.43;;;;;;;23.98;86.02;98167.97;5030970;28;20694;-59
2023/08/25 05:24:25;;;;;;;9.05;8.25;;;;;;;24.13;85.97;98182.69;5030979;28;20173;-59
2023/08/25 05:26:53;;;;;;;9.30;8.40;;;;;;;24.14;84.93;98182.50;5031302;28;20283;-58
2023/08/25 05:29:23;;;;;;;12.00;8.65;;;;;;;24.00;84.14;98152.75;5030710;28;20596;-59
2023/08/25 05:31:50;;;;;;;9.57;8.60;;;;;;;24.02;84.61;98150.72;5031059;28;20272;-57
2023/08/25 05:34:15;;;;;;;10.90;8.05;;;;;;;24.21;83.92;98179.91;5030733;28;20182;-58
2023/08/25 05:36:41;;;;;;;9.55;8.55;;;;;;;24.35;83.33;98185.06;5031270;28;20608;-58
2023/08/25 05:39:07;;;;;;;11.60;8.15;;;;;;;24.25;83.45;98162.59;5030574;28;20264;-58
2023/08/25 05:41:32;;;;;;;9.70;8.80;;;;;;;24.39;82.12;98165.09;5030600;28;20240;-58
2023/08/25 05:43:58;;;;;;;9.30;8.45;;;;;;;24.54;82.11;98172.91;5030796;28;20174;-58
2023/08/25 05:46:24;;;;;;;10.23;8.63;;;;;;;24.77;80.98;98205.16;5031164;28;20509;-58
2023/08/25 05:48:49;;;;;;;9.40;8.60;;;;;;;24.76;81.55;98188.50;5030655;28;20649;-59
2023/08/25 05:51:15;;;;;;;9.40;8.32;;;;;;;24.95;80.64;98216.84;5048110;28;20670;-57
2023/08/25 05:53:40;;;;;;;9.77;8.48;;;;;;;24.86;79.26;98181.00;5048342;28;20223;-57
2023/08/25 05:56:06;;;;;;;15.98;9.25;;;;;;;24.95;80.17;98193.00;5048188;28;20177;-57
2023/08/25 05:58:31;;;;;;;16.40;11.10;;;;;;;25.24;79.40;98229.78;5048195;28;20642;-57
2023/08/25 06:00:58;;;;;;;11.95;9.63;;;;;;;25.15;78.33;98201.81;5048147;28;20209;-58
2023/08/25 06:03:24;;;;;;;14.30;9.20;;;;;;;25.24;77.34;98223.66;5048091;28;20193;-58
2023/08/25 06:05:51;;;;;;;8.98;7.80;;;;;;;25.36;75.26;98238.75;5048161;28;20682;-58
2023/08/25 06:08:17;;;;;;;9.52;8.55;;;;;;;25.26;75.98;98201.22;5047951;28;20212;-58
2023/08/25 06:10:43;;;;;;;9.65;8.75;;;;;;;25.35;75.83;98213.28;5048423;28;20181;-58
2023/08/25 06:13:08;;;;;;;8.75;7.95;;;;;;;25.54;75.81;98217.75;5048291;28;20250;-58
2023/08/25 06:15:33;;;;;;;9.27;8.48;;;;;;;25.68;74.15;98227.38;5047892;28;20177;-58
2023/08/25 06:17:59;;;;;;;9.73;8.82;;;;;;;25.55;73.96;98197.41;5048173;28;20181;-58
2023/08/25 06:20:25;;;;;;;8.60;7.82;;;;;;;25.54;73.27;98180.66;5047711;28;20301;-58
2023/08/25 06:22:50;;;;;;;10.63;8.30;;;;;;;25.83;73.53;98227.94;5049879;28;20197;-58
2023/08/25 06:25:16;;;;;;;9.70;8.13;;;;;;;25.88;72.76;98222.84;5051783;28;20725;-58
2023/08/25 06:27:41;;;;;;;12.00;8.27;;;;;;;26.08;71.90;98239.59;5049845;28;20315;-58
2023/08/25 06:30:08;;;;;;;8.63;7.72;;;;;;;26.02;71.29;98197.97;5034222;28;20189;-58
2023/08/25 06:32:33;;;;;;;9.18;8.27;;;;;;;26.08;70.33;98191.84;5034269;28;20177;-58
2023/08/25 06:34:59;;;;;;;9.02;8.23;;;;;;;26.32;69.81;98216.88;5034051;28;20190;-58
2023/08/25 06:37:24;;;;;;;9.00;8.20;;;;;;;26.38;69.51;98213.38;5033754;28;20177;-58
2023/08/25 06:39:50;;;;;;;12.50;9.15;;;;;;;26.27;69.09;98182.19;5034041;28;20706;-58
2023/08/25 06:42:16;;;;;;;9.55;8.68;;;;;;;26.58;68.79;98224.81;5031371;28;20713;-58
2023/08/25 06:44:42;;;;;;;10.82;8.00;;;;;;;26.48;67.69;98201.28;5031492;28;20186;-57
2023/08/25 06:47:07;;;;;;;10.18;8.45;;;;;;;26.66;68.08;98227.22;5031380;28;20671;-57
2023/08/25 06:49:33;;;;;;;8.43;7.72;;;;;;;26.74;68.23;98222.47;5031524;28;20178;-57
2023/08/25 06:51:58;;;;;;;9.07;7.90;;;;;;;26.83;67.53;98229.16;5031159;28;20196;-58
2023/08/25 06:54:26;;;;;;;9.07;8.18;;;;;;;26.78;67.18;98213.06;5031177;28;20186;-58
2023/08/25 06:56:53;;;;;;;9.88;8.82;;;;;;;27.00;66.99;98235.59;5031181;28;20681;-58
2023/08/25 06:59:18;;;;;;;13.48;12.15;;;;;;;27.04;66.13;98225.38;5031240;28;20177;-58
2023/08/25 07:01:44;;;;;;;10.30;9.00;;;;;;;27.22;65.45;98238.81;5031036;28;20209;-58
2023/08/25 07:04:10;;;;;;;9.93;8.25;;;;;;;27.35;64.68;98238.72;5031113;28;20174;-59
2023/08/25 07:06:36;;;;;;;13.25;8.20;;;;;;;27.44;64.39;98232.91;5030919;28;20208;-57
2023/08/25 07:09:02;;;;;;;9.80;8.80;;;;;;;27.36;64.86;98213.75;5030879;28;20201;-57
2023/08/25 07:11:28;;;;;;;9.25;8.25;;;;;;;27.52;64.03;98224.66;5031092;28;20678;-57
2023/08/25 07:13:53;;;;;;;9.50;8.45;;;;;;;27.70;63.10;98223.94;5030962;28;20268;-57
2023/08/25 07:16:19;;;;;;;9.98;8.98;;;;;;;27.85;63.05;98224.41;5030965;28;20216;-57
2023/08/25 07:18:47;;;;;;;9.40;8.25;;;;;;;27.69;61.59;98191.19;5031145;28;20624;-57
2023/08/25 07:21:12;;;;;;;9.18;8.32;;;;;;;27.95;61.33;98224.75;5032944;28;20681;-57
2023/08/25 07:23:41;;;;;;;8.95;8.25;;;;;;;27.95;62.26;98225.56;5033475;28;20274;-57
2023/08/25 07:26:06;;;;;;;9.40;8.23;;;;;;;28.00;61.41;98223.06;5033169;28;20174;-58
2023/08/25 07:28:32;;;;;;;9.15;8.00;;;;;;;28.08;62.03;98222.78;5032810;28;20181;-57
2023/08/25 07:30:59;;;;;;;9.43;8.45;;;;;;;28.16;62.16;98225.13;5033102;28;20182;-58
2023/08/25 07:33:25;;;;;;;9.48;8.68;;;;;;;28.13;60.01;98214.94;5032485;28;20177;-58
2023/08/25 07:35:50;;;;;;;10.40;9.45;;;;;;;28.30;59.63;98213.34;5032570;28;20177;-58
2023/08/25 07:38:15;;;;;;;11.18;9.05;;;;;;;28.36;59.49;98212.44;5033069;28;20178;-58
2023/08/25 07:40:41;;;;;;;11.25;9.13;;;;;;;28.41;59.84;98201.97;5032942;28;20216;-58
2023/08/25 07:43:06;;;;;;;10.38;9.27;;;;;;;28.52;58.67;98190.56;5032728;28;20284;-59
2023/08/25 07:45:32;;;;;;;10.38;9.25;;;;;;;28.58;58.99;98195.00;5032876;28;20178;-58
2023/08/25 07:47:59;;;;;;;9.63;8.68;;;;;;;28.80;57.63;98208.66;5032719;28;20265;-58
2023/08/25 07:50:27;;;;;;;10.52;9.45;;;;;;;28.87;57.95;98204.06;5032726;28;20209;-58
2023/08/25 07:52:52;;;;;;;11.23;9.43;;;;;;;28.91;58.33;98202.56;5032647;28;20181;-58
2023/08/25 07:55:18;;;;;;;10.57;9.63;;;;;;;29.08;58.82;98228.38;5032538;28;20565;-58
2023/08/25 07:57:46;;;;;;;11.60;10.40;;;;;;;29.18;58.42;98230.50;5032630;28;20188;-58
2023/08/25 08:00:15;;;;;;;11.00;10.00;;;;;;;29.08;58.56;98212.41;5032426;28;20182;-58
2023/08/25 08:02:50;;;;;;;12.93;10.43;;;;;;;29.13;57.46;98204.53;5032446;28;20186;-58
2023/08/25 08:05:17;;;;;;;14.68;9.68;;;;;;;29.24;57.83;98216.25;5032561;28;20574;-58
2023/08/25 08:07:44;;;;;;;11.13;10.02;;;;;;;29.36;57.90;98233.94;5032422;28;20178;-58
2023/08/25 08:10:10;;;;;;;11.93;9.82;;;;;;;29.30;57.03;98199.34;5032461;28;20193;-58
2023/08/25 08:12:36;;;;;;;12.00;10.63;;;;;;;29.55;57.18;98221.38;5032384;28;20174;-58
2023/08/25 08:15:04;;;;;;;12.00;10.30;;;;;;;29.39;57.14;98204.13;5032195;28;20667;-58
2023/08/25 08:17:30;;;;;;;12.32;11.13;;;;;;;29.24;57.02;98195.75;5032206;28;20193;-58
2023/08/25 08:19:55;;;;;;;12.07;10.98;;;;;;;29.34;56.66;98220.03;5032178;28;20660;-58
2023/08/25 08:22:21;;;;;;;16.20;10.75;;;;;;;29.31;56.73;98188.47;5031827;28;20198;-58
2023/08/25 08:24:50;;;;;;;14.27;11.07;;;;;;;29.63;56.72;98227.19;5031788;28;20173;-58
2023/08/25 08:27:18;;;;;;;15.27;11.23;;;;;;;29.56;56.04;98191.78;5032304;28;20264;-58
2023/08/25 08:29:45;;;;;;;14.02;11.45;;;;;;;29.83;55.80;98224.16;5031978;28;20197;-58
2023/08/25 08:32:12;;;;;;;12.52;11.32;;;;;;;29.97;55.97;98222.91;5031965;28;20177;-58
2023/08/25 08:34:37;;;;;;;14.10;11.05;;;;;;;30.07;55.03;98221.28;5031968;28;20182;-58
2023/08/25 08:37:06;;;;;;;13.18;11.60;;;;;;;30.10;55.21;98210.16;5031779;28;20553;-58
2023/08/25 08:39:37;;;;;;;12.27;11.15;;;;;;;30.02;54.64;98193.66;5031761;28;20181;-58
2023/08/25 08:42:03;;;;;;;16.25;11.02;;;;;;;30.17;54.90;98216.19;5031197;28;20588;-58
2023/08/25 08:44:30;;;;;;;13.27;11.95;;;;;;;30.16;55.14;98209.25;5031704;28;20188;-58
2023/08/25 08:46:56;;;;;;;14.93;10.88;;;;;;;30.01;54.22;98197.34;5031569;28;20549;-58
2023/08/25 08:49:24;;;;;;;18.10;11.48;;;;;;;30.07;55.36;98193.78;5031252;28;20631;-58
2023/08/25 08:51:55;;;;;;;14.50;11.82;;;;;;;30.13;54.75;98199.00;5031217;28;20648;-58
2023/08/25 08:54:25;;;;;;;12.25;10.98;;;;;;;30.09;54.20;98184.50;5031543;28;20713;-59
2023/08/25 08:56:51;;;;;;;13.05;11.68;;;;;;;30.37;54.69;98211.28;5031483;28;20166;-58
2023/08/25 08:59:17;;;;;;;13.27;11.65;;;;;;;30.32;54.26;98207.69;5031358;28;20270;-58
2023/08/25 09:01:43;;;;;;;15.40;12.13;;;;;;;30.34;54.49;98197.59;5031052;28;20288;-58
2023/08/25 09:04:09;;;;;;;12.35;11.15;;;;;;;30.38;54.72;98178.19;5031263;28;20173;-58
2023/08/25 09:06:37;;;;;;;16.20;12.02;;;;;;;30.65;54.02;98205.19;5030965;28;20178;-58
2023/08/25 09:09:05;;;;;;;16.45;12.82;;;;;;;30.57;53.39;98177.00;5031278;28;20193;-58
2023/08/25 09:11:33;;;;;;;13.38;10.90;;;;;;;30.78;53.20;98204.94;5031191;28;20503;-57
2023/08/25 09:14:03;;;;;;;12.82;11.52;;;;;;;30.85;53.31;98200.25;5030963;28;20583;-58
2023/08/25 09:16:34;;;;;;;14.80;12.73;;;;;;;30.85;52.81;98184.22;5031451;28;20232;-58
2023/08/25 09:19:03;;;;;;;13.13;10.98;;;;;;;30.81;52.41;98173.22;5031196;28;20178;-58
2023/08/25 09:21:29;;;;;;;12.75;10.88;;;;;;;31.03;52.14;98187.53;5031110;28;20201;-57
2023/08/25 09:23:56;;;;;;;13.02;11.00;;;;;;;31.00;50.72;98171.94;5031035;28;20184;-58
2023/08/25 09:26:22;;;;;;;13.55;12.35;;;;;;;31.21;50.79;98181.16;5031140;28;20173;-58
2023/08/25 09:28:47;;;;;;;13.23;11.38;;;;;;;31.37;50.81;98188.41;5031410;28;20296;-58
2023/08/25 09:31:24;;;;;;;12.80;11.55;;;;;;;31.38;50.44;98184.66;5031043;28;20177;-58
2023/08/25 09:33:51;;;;;;;12.20;11.00;;;;;;;31.40;50.30;98172.69;5030997;28;20208;-58
2023/08/25 09:36:18;;;;;;;14.45;11.65;;;;;;;31.54;50.15;98182.00;5031002;28;20174;-58
2023/08/25 09:38:45;;;;;;;11.77;10.57;;;;;;;31.70;48.87;98181.19;5030955;28;20560;-58
2023/08/25 09:41:11;;;;;;;11.75;10.48;;;;;;;31.78;49.29;98188.81;5030808;28;20705;-58
2023/08/25 09:43:39;;;;;;;11.23;10.02;;;;;;;31.66;48.20;98150.59;5031166;28;20208;-58
2023/08/25 09:46:08;;;;;;;15.90;10.88;;;;;;;31.79;49.14;98158.34;5030603;28;20704;-58
2023/08/25 09:48:34;;;;;;;12.93;11.20;;;;;;;31.80;49.28;98143.09;5030851;28;20660;-57
2023/08/25 09:51:00;;;;;;;12.73;10.57;;;;;;;31.84;48.57;98144.22;5030769;28;20202;-57
2023/08/25 09:53:31;;;;;;;12.30;10.23;;;;;;;31.93;48.89;98148.91;5030559;28;20205;-58
2023/08/25 09:56:01;;;;;;;12.70;11.50;;;;;;;32.12;48.55;98165.50;5030900;28;20177;-57
2023/08/25 09:58:28;;;;;;;11.35;10.25;;;;;;;32.12;47.25;98128.00;5033898;28;20173;-57
2023/08/25 10:00:54;;;;;;;12.10;10.73;;;;;;;32.23;47.49;98140.47;5034671;28;20206;-57
2023/08/25 10:03:20;;;;;;;14.45;10.45;;;;;;;32.36;46.86;98156.19;5034667;28;20193;-57
2023/08/25 10:05:46;;;;;;;12.50;10.43;;;;;;;32.34;46.98;98143.03;5034823;28;20177;-57
2023/08/25 10:08:11;;;;;;;10.63;9.73;;;;;;;32.50;46.55;98155.56;5034384;28;20186;-57
2023/08/25 10:10:38;;;;;;;13.23;9.60;;;;;;;32.47;46.29;98129.25;5034360;28;20174;-58
2023/08/25 10:13:04;;;;;;;12.13;9.77;;;;;;;32.69;46.22;98142.66;5034526;28;20193;-58
2023/08/25 10:15:32;;;;;;;10.88;9.52;;;;;;;32.69;45.13;98132.72;5034502;28;20660;-58
2023/08/25 10:18:02;;;;;;;12.45;9.68;;;;;;;32.95;44.58;98144.56;5034424;28;20178;-57
2023/08/25 10:20:29;;;;;;;13.80;9.90;;;;;;;32.97;44.91;98145.09;5034398;28;20177;-57
2023/08/25 10:22:56;;;;;;;10.38;9.38;;;;;;;33.10;44.88;98147.38;5034369;28;20270;-57
2023/08/25 10:25:26;;;;;;;9.80;8.90;;;;;;;33.11;42.61;98133.69;5034253;28;20178;-57
2023/08/25 10:27:52;;;;;;;10.68;8.43;;;;;;;33.09;42.84;98130.47;5034337;28;20182;-57
2023/08/25 10:30:19;;;;;;;12.50;9.45;;;;;;;33.14;41.91;98133.22;5034222;28;20533;-58
2023/08/25 10:32:48;;;;;;;9.23;8.32;;;;;;;32.96;42.54;98106.75;5033900;28;20639;-58
2023/08/25 10:35:14;;;;;;;10.23;9.32;;;;;;;33.14;43.21;98098.34;5033981;28;20182;-58
2023/08/25 10:37:40;;;;;;;11.35;9.43;;;;;;;33.39;42.85;98117.34;5034059;28;20265;-58
2023/08/25 10:40:10;;;;;;;10.65;9.38;;;;;;;33.35;42.96;98092.06;5034079;28;20257;-59
2023/08/25 10:42:36;;;;;;;10.15;9.02;;;;;;;33.33;42.62;98129.09;5033948;28;20241;-59
2023/08/25 10:45:08;;;;;;;9.77;8.93;;;;;;;33.56;41.97;98120.69;5051220;28;20185;-59
2023/08/25 10:47:41;;;;;;;10.80;9.05;;;;;;;33.63;41.73;98083.69;5051387;28;20189;-59
2023/08/25 10:50:07;;;;;;;9.45;8.55;;;;;;;33.81;40.61;98104.75;5051058;28;20597;-59
2023/08/25 10:52:33;;;;;;;9.27;8.48;;;;;;;34.14;40.24;98112.44;5051216;28;20200;-58
2023/08/25 10:55:22;;;;;;;9.50;8.70;;;;;;;34.29;39.90;98120.63;5051109;28;20630;-59
2023/08/25 10:57:50;;;;;;;9.07;8.25;;;;;;;34.50;38.12;98116.91;4991860;28;20350;-59
2023/08/25 11:00:25;;;;;;;9.15;8.40;;;;;;;34.65;38.06;98119.66;4991735;28;20187;-59
2023/08/25 11:02:51;;;;;;;8.75;8.02;;;;;;;34.71;38.03;98101.63;4991769;28;20194;-59
2023/08/25 11:05:29;;;;;;;10.00;7.22;;;;;;;34.70;37.10;98111.59;4991687;28;20199;-59
2023/08/25 11:07:55;;;;;;;8.73;7.45;;;;;;;34.91;37.34;98115.16;4991464;28;20197;-59
2023/08/25 11:10:24;;;;;;;7.88;7.07;;;;;;;35.05;36.96;98103.59;4990531;28;20381;-57
2023/08/25 11:12:53;;;;;;;7.70;7.10;;;;;;;35.21;36.15;98088.25;4991739;28;20199;-59
2023/08/25 11:15:21;;;;;;;8.18;7.13;;;;;;;35.01;35.36;98086.38;4987455;28;20202;-57
2023/08/25 11:17:48;;;;;;;7.80;7.13;;;;;;;35.24;35.29;98104.72;4972080;28;20262;-57
2023/08/25 11:20:15;;;;;;;7.50;6.80;;;;;;;35.20;35.74;98074.00;4955372;28;20195;-57
2023/08/25 11:22:50;;;;;;;7.72;6.93;;;;;;;35.29;34.58;98088.56;4971892;28;20265;-60
2023/08/25 11:25:16;;;;;;;7.15;6.53;;;;;;;35.26;33.62;98072.94;4971923;28;20682;-58